Date,TemperatureHighF,TemperatureAvgF,TemperatureLowF,DewpointHighF,DewpointAvgF,DewpointLowF,HumidityHigh,HumidityAvg,HumidityLow,PressureMaxIn,PressureMinIn,WindSpeedMaxMPH,WindSpeedAvgMPH,GustSpeedMaxMPH,PrecipitationSumIn
2013-1-1,22.5,7.6,-4.6,11.4,-0.3,-13.7,80,70,59,30.68,30.27,7,0,7,0.01
2013-1-2,24.1,13.4,1.4,5.2,-0.1,-7.3,72,55,38,30.79,30.47,8,1,8,0.00
2013-1-3,21.8,7.9,-6.2,2.9,-2.5,-11.8,77,63,43,30.89,30.58,6,0,6,0.00
2013-1-4,36.4,19.5,-2.7,13.3,3.1,-11.2,66,49,35,30.83,30.27,6,0,6,0.02
2013-1-5,39.2,22.8,2.2,16.7,6.5,-7.6,67,50,34,30.73,30.31,8,0,8,0.01
2013-1-6,39.9,26.1,-1.7,14.4,6.2,-9.8,70,43,32,30.80,30.09,12,1,12,0.00
2013-1-7,36.7,23.4,11.6,16.4,8.7,-0.1,68,54,36,30.28,30.01,10,1,10,0.00
2013-1-8,45.0,28.6,11.2,19.0,11.4,-1.1,72,50,31,30.53,30.08,8,0,8,0.00
2013-1-9,42.2,26.0,10.4,20.1,11.1,1.5,70,54,38,30.74,30.35,8,0,8,0.00
2013-1-10,50.9,34.9,7.9,17.0,10.0,-1.7,65,38,16,30.32,29.69,24,3,24,0.00
2013-1-11,27.2,17.6,8.9,12.7,1.5,-7.7,78,49,31,30.03,29.36,52,7,52,0.00
2013-1-12,17.8,8.3,-3.2,-4.6,-9.1,-14.3,67,45,28,30.41,30.07,8,1,8,0.00
2013-1-13,17.0,11.0,-3.7,1.8,-3.5,-11.0,78,53,33,30.52,30.25,14,1,14,0.00
2013-1-14,13.5,4.0,-7.6,1.4,-3.8,-13.3,79,70,57,30.54,30.27,6,0,7,0.00
2013-1-15,26.9,14.5,-14.9,10.0,0.7,-21.0,77,55,43,30.80,30.47,14,1,14,0.00
2013-1-16,39.9,26.2,8.1,19.8,12.5,0.3,76,57,40,30.62,30.27,8,0,8,0.01
2013-1-17,39.7,26.6,9.6,21.8,14.7,3.3,78,62,45,30.84,30.45,10,1,10,0.00
2013-1-18,42.1,27.8,3.8,19.5,12.1,-3.2,75,53,37,30.66,30.27,7,1,7,0.00
2013-1-19,45.2,31.1,6.9,18.6,10.5,-2.9,65,44,25,30.73,30.34,9,1,9,0.00
2013-1-20,48.3,32.8,11.3,18.6,8.7,-3.3,68,39,16,30.60,30.15,9,1,9,0.00
2013-1-21,45.5,32.0,7.0,21.4,13.6,-0.4,71,48,27,30.56,30.23,9,1,10,0.00
2013-1-22,53.4,36.1,16.9,18.6,11.6,2.7,66,38,17,30.52,30.21,14,1,14,0.00
2013-1-23,54.4,38.5,13.9,25.1,13.3,-1.6,53,37,15,30.68,30.20,10,1,10,0.00
2013-1-24,49.6,38.5,31.2,18.7,12.4,6.5,39,34,29,30.23,30.06,20,2,20,0.00
2013-1-25,51.2,40.3,29.4,31.7,27.6,23.1,79,62,43,30.20,29.97,20,1,20,0.00
2013-1-26,47.4,38.5,27.6,34.9,29.7,21.4,88,71,53,30.10,29.60,15,1,15,0.06
2013-1-27,46.9,40.7,36.9,29.4,24.9,19.3,65,53,45,29.69,29.58,19,3,20,0.01
2013-1-28,42.4,36.6,29.9,30.8,23.2,10.1,83,59,40,29.64,29.42,27,6,27,0.00
2013-1-29,24.8,20.9,16.8,14.8,6.6,-2.8,78,55,31,30.01,29.62,25,5,25,0.00
2013-1-30,34.9,25.6,5.6,10.0,6.0,-4.6,62,44,31,30.23,29.97,34,5,34,0.01
2013-1-31,44.0,35.7,16.9,15.9,11.4,6.4,63,37,28,30.20,30.05,23,4,23,0.00